createdAt,value
2022-11-07T00:00:01.581Z,10.8
2022-11-07T00:01:01.135Z,10.8
2022-11-07T00:02:01.780Z,10.8
2022-11-07T00:03:01.461Z,10.8
2022-11-07T00:04:01.941Z,10.8
2022-11-07T00:05:01.514Z,10.8
2022-11-07T00:06:02.091Z,10.8
2022-11-07T00:07:01.683Z,10.9
2022-11-07T00:08:01.285Z,10.9
2022-11-07T00:09:01.845Z,10.9
2022-11-07T00:10:01.421Z,10.9
2022-11-07T00:11:02.000Z,11
2022-11-07T00:12:01.594Z,10.9
2022-11-07T00:13:01.190Z,11
2022-11-07T00:14:01.762Z,10.9
2022-11-07T00:15:01.336Z,11
2022-11-07T00:16:01.912Z,11
2022-11-07T00:17:01.487Z,10.9
2022-11-07T00:18:02.061Z,11
2022-11-07T00:19:01.658Z,11
2022-11-07T00:20:01.234Z,11
2022-11-07T00:21:01.808Z,11
2022-11-07T00:22:01.384Z,11
2022-11-07T00:23:01.965Z,11
2022-11-07T00:24:01.586Z,11
2022-11-07T00:25:01.123Z,11
2022-11-07T00:26:01.699Z,11
2022-11-07T00:27:01.331Z,11
2022-11-07T00:28:01.858Z,11
2022-11-07T00:29:01.448Z,11
2022-11-07T00:30:02.029Z,10.9
2022-11-07T00:31:01.607Z,11
2022-11-07T00:32:01.190Z,11
2022-11-07T00:33:01.761Z,11
2022-11-07T00:34:01.360Z,11
2022-11-07T00:35:01.924Z,11
2022-11-07T00:36:01.498Z,11
2022-11-07T00:37:02.097Z,11.1
2022-11-07T00:38:01.684Z,11.1
2022-11-07T00:39:01.300Z,11.1
2022-11-07T00:40:01.861Z,11.2
2022-11-07T00:41:01.437Z,11.2
2022-11-07T00:42:02.012Z,11.2
2022-11-07T00:43:01.591Z,11.1
2022-11-07T00:44:01.180Z,11.2
2022-11-07T00:45:01.763Z,11.2
2022-11-07T00:46:01.344Z,11.1
2022-11-07T00:47:01.917Z,11.1
2022-11-07T00:48:01.511Z,11.2
2022-11-07T00:49:02.071Z,11.2
2022-11-07T00:50:01.673Z,11.2
2022-11-07T00:51:01.250Z,11.2
2022-11-07T00:52:01.824Z,11.2
2022-11-07T00:53:01.436Z,11.2
2022-11-07T00:54:02.012Z,11.3
2022-11-07T00:55:01.608Z,11.2
2022-11-07T00:56:01.192Z,11.2
2022-11-07T00:57:01.760Z,11.1
2022-11-07T00:58:01.335Z,11.1
2022-11-07T00:59:01.919Z,11
2022-11-07T01:00:01.526Z,11
2022-11-07T01:01:02.085Z,10.9
2022-11-07T01:02:01.841Z,10.9
2022-11-07T01:03:01.383Z,10.9
2022-11-07T01:04:01.905Z,10.8
2022-11-07T01:05:01.499Z,10.8
2022-11-07T01:06:02.057Z,10.8
2022-11-07T01:07:01.632Z,10.8
2022-11-07T01:08:01.211Z,10.8
2022-11-07T01:09:01.785Z,10.9
2022-11-07T01:10:01.382Z,10.9
2022-11-07T01:11:01.947Z,10.9
2022-11-07T01:12:01.633Z,10.9
2022-11-07T01:13:02.100Z,10.9
2022-11-07T01:14:01.721Z,10.9
2022-11-07T01:15:01.322Z,10.9
2022-11-07T01:16:01.896Z,10.9
2022-11-07T01:17:01.472Z,10.9
2022-11-07T01:18:02.042Z,10.9
2022-11-07T01:19:01.623Z,10.8
2022-11-07T01:20:01.207Z,10.8
2022-11-07T01:21:01.818Z,10.8
2022-11-07T01:22:01.412Z,10.8
2022-11-07T01:23:01.967Z,10.8
2022-11-07T01:24:01.542Z,10.8
2022-11-07T01:25:01.121Z,10.8
2022-11-07T01:26:01.717Z,10.8
2022-11-07T01:27:01.296Z,10.8
2022-11-07T01:28:01.996Z,10.8
2022-11-07T01:29:01.520Z,10.8
2022-11-07T01:30:02.090Z,10.8
2022-11-07T01:31:01.685Z,10.8
2022-11-07T01:32:01.262Z,10.7
2022-11-07T01:33:01.840Z,10.7
2022-11-07T01:34:01.415Z,10.7
2022-11-07T01:35:02.008Z,10.7
2022-11-07T01:36:05.809Z,10.7
2022-11-07T01:37:01.123Z,10.7
2022-11-07T01:38:01.717Z,10.6
2022-11-07T01:39:01.311Z,10.5
2022-11-07T01:40:01.871Z,10.5
2022-11-07T01:41:01.449Z,10.5
2022-11-07T01:42:02.026Z,10.5
2022-11-07T01:43:01.622Z,10.5
2022-11-07T01:44:01.206Z,10.5
2022-11-07T01:45:01.773Z,10.5
2022-11-07T01:46:01.404Z,10.5
2022-11-07T01:47:01.980Z,10.5
2022-11-07T01:48:01.579Z,10.4
2022-11-07T01:49:01.142Z,10.5
2022-11-07T01:50:01.718Z,10.5
2022-11-07T01:51:01.298Z,10.5
2022-11-07T01:52:01.891Z,10.6
2022-11-07T01:53:01.467Z,10.6
2022-11-07T01:54:02.047Z,10.5
2022-11-07T01:55:01.640Z,10.5
2022-11-07T01:56:01.224Z,10.5
2022-11-07T01:57:01.821Z,10.5
2022-11-07T01:58:01.398Z,10.4
2022-11-07T01:59:01.973Z,10.4
2022-11-07T02:00:01.574Z,10.4
2022-11-07T02:01:01.133Z,10.4
2022-11-07T02:02:01.852Z,10.4
2022-11-07T02:03:01.557Z,10.4
2022-11-07T02:04:01.942Z,10.4
2022-11-07T02:05:01.520Z,10.4
2022-11-07T02:06:02.094Z,10.4
2022-11-07T02:07:01.687Z,10.3
2022-11-07T02:08:01.286Z,10.3
2022-11-07T02:09:01.842Z,10.3
2022-11-07T02:10:01.417Z,10.4
2022-11-07T02:11:01.993Z,10.4
2022-11-07T02:12:01.567Z,10.3
2022-11-07T02:13:01.161Z,10.3
2022-11-07T02:14:01.780Z,10.3
2022-11-07T02:15:01.366Z,10.3
2022-11-07T02:16:01.968Z,10.3
2022-11-07T02:17:01.544Z,10.3
2022-11-07T02:18:01.149Z,10.3
2022-11-07T02:19:01.707Z,10.3
2022-11-07T02:20:01.286Z,10.4
2022-11-07T02:21:01.855Z,10.5
2022-11-07T02:22:01.431Z,10.4
2022-11-07T02:23:02.027Z,10.4
2022-11-07T02:24:01.606Z,10.4
2022-11-07T02:25:01.182Z,10.4
2022-11-07T02:26:01.766Z,10.5
2022-11-07T02:27:01.342Z,10.5
2022-11-07T02:28:01.939Z,10.5
2022-11-07T02:29:01.515Z,10.4
2022-11-07T02:30:02.092Z,10.4
2022-11-07T02:31:01.667Z,10.3
2022-11-07T02:32:01.265Z,10.4
2022-11-07T02:33:01.842Z,10.3
2022-11-07T02:34:01.422Z,10.3
2022-11-07T02:35:02.000Z,10.3
2022-11-07T02:36:01.576Z,10.3
2022-11-07T02:37:01.150Z,10.3
2022-11-07T02:38:01.745Z,10.3
2022-11-07T02:39:01.322Z,10.3
2022-11-07T02:40:01.910Z,10.3
2022-11-07T02:41:01.488Z,10.3
2022-11-07T02:42:02.069Z,10.3
2022-11-07T02:43:01.667Z,10.3
2022-11-07T02:44:01.260Z,10.3
2022-11-07T02:45:01.823Z,10.3
2022-11-07T02:46:01.398Z,10.3
2022-11-07T02:47:01.984Z,10.3
2022-11-07T02:48:01.598Z,10.3
2022-11-07T02:49:01.159Z,10.3
2022-11-07T02:50:01.728Z,10.3
2022-11-07T02:51:01.303Z,10.4
2022-11-07T02:52:01.880Z,10.3
2022-11-07T02:53:01.477Z,10.4
2022-11-07T02:54:02.032Z,10.4
2022-11-07T02:55:01.611Z,10.4
2022-11-07T02:56:01.194Z,10.4
2022-11-07T02:57:01.772Z,10.4
2022-11-07T02:58:01.365Z,10.4
2022-11-07T02:59:01.955Z,10.4
2022-11-07T03:00:01.548Z,10.4
2022-11-07T03:01:02.115Z,10.4
2022-11-07T03:02:01.798Z,10.4
2022-11-07T03:03:01.368Z,10.4
2022-11-07T03:04:01.995Z,10.5
2022-11-07T03:05:01.569Z,10.6
2022-11-07T03:06:01.149Z,10.5
2022-11-07T03:07:01.725Z,10.5
2022-11-07T03:08:01.304Z,10.6
2022-11-07T03:09:01.897Z,10.6
2022-11-07T03:10:01.472Z,10.7
2022-11-07T03:11:02.051Z,10.8
2022-11-07T03:12:01.630Z,10.8
2022-11-07T03:13:01.206Z,10.9
2022-11-07T03:14:01.801Z,10.9
2022-11-07T03:15:01.472Z,11
2022-11-07T03:16:01.964Z,11
2022-11-07T03:17:01.541Z,11
2022-11-07T03:18:02.118Z,11
2022-11-07T03:19:01.715Z,11
2022-11-07T03:20:01.320Z,11
2022-11-07T03:21:01.876Z,11
2022-11-07T03:22:01.456Z,11
2022-11-07T03:23:02.049Z,11
2022-11-07T03:24:01.625Z,11
2022-11-07T03:25:01.199Z,10.9
2022-11-07T03:26:01.792Z,10.9
2022-11-07T03:27:01.368Z,10.9
2022-11-07T03:28:01.963Z,10.9
2022-11-07T03:29:01.548Z,10.9
2022-11-07T03:30:01.122Z,10.8
2022-11-07T03:31:01.708Z,10.9
2022-11-07T03:32:01.302Z,10.9
2022-11-07T03:33:01.904Z,10.9
2022-11-07T03:34:01.483Z,10.9
2022-11-07T03:35:02.068Z,11
2022-11-07T03:36:01.670Z,10.9
2022-11-07T03:37:01.258Z,10.9
2022-11-07T03:38:01.840Z,10.9
2022-11-07T03:39:01.417Z,10.9
2022-11-07T03:40:01.987Z,10.9
2022-11-07T03:41:01.565Z,10.8
2022-11-07T03:42:01.157Z,10.9
2022-11-07T03:43:01.745Z,10.9
2022-11-07T03:44:01.322Z,10.9
2022-11-07T03:45:01.893Z,10.9
2022-11-07T03:46:01.494Z,10.8
2022-11-07T03:47:02.083Z,10.8
2022-11-07T03:48:01.713Z,10.8
2022-11-07T03:49:01.288Z,10.8
2022-11-07T03:50:01.864Z,10.7
2022-11-07T03:51:01.441Z,10.8
2022-11-07T03:52:02.074Z,10.8
2022-11-07T03:53:01.667Z,10.8
2022-11-07T03:54:01.225Z,10.8
2022-11-07T03:55:01.799Z,10.7
2022-11-07T03:56:01.380Z,10.7
2022-11-07T03:57:01.964Z,10.7
2022-11-07T03:58:01.542Z,10.7
2022-11-07T03:59:01.120Z,10.7
2022-11-07T04:00:01.696Z,10.7
2022-11-07T04:01:01.274Z,10.8
2022-11-07T04:02:01.988Z,10.7
2022-11-07T04:03:01.588Z,10.8
2022-11-07T04:04:02.084Z,10.7
2022-11-07T04:05:01.662Z,10.6
2022-11-07T04:06:01.243Z,10.7
2022-11-07T04:07:01.848Z,10.7
2022-11-07T04:08:01.449Z,10.7
2022-11-07T04:09:02.013Z,10.7
2022-11-07T04:10:01.588Z,10.7
2022-11-07T04:11:01.163Z,10.8
2022-11-07T04:12:01.756Z,10.7
2022-11-07T04:13:01.334Z,10.7
2022-11-07T04:14:01.910Z,10.7
2022-11-07T04:15:01.537Z,10.7
2022-11-07T04:16:02.063Z,10.6
2022-11-07T04:17:01.657Z,10.6
2022-11-07T04:18:01.251Z,10.7
2022-11-07T04:19:01.803Z,10.8
2022-11-07T04:20:01.380Z,10.7
2022-11-07T04:21:01.955Z,10.7
2022-11-07T04:22:01.553Z,10.7
2022-11-07T04:23:01.121Z,10.7
2022-11-07T04:24:01.723Z,10.6
2022-11-07T04:25:01.300Z,10.6
2022-11-07T04:26:01.876Z,10.5
2022-11-07T04:27:01.472Z,10.6
2022-11-07T04:28:02.056Z,10.6
2022-11-07T04:29:01.634Z,10.6
2022-11-07T04:30:01.209Z,10.6
2022-11-07T04:31:01.783Z,10.6
2022-11-07T04:32:01.437Z,10.6
2022-11-07T04:33:02.032Z,10.6
2022-11-07T04:34:01.607Z,10.6
2022-11-07T04:35:01.184Z,10.6
2022-11-07T04:36:01.760Z,10.6
2022-11-07T04:37:01.343Z,10.6
2022-11-07T04:38:01.935Z,10.5
2022-11-07T04:39:01.559Z,10.5
2022-11-07T04:40:01.339Z,10.5
2022-11-07T04:41:01.713Z,10.5
2022-11-07T04:42:01.289Z,10.5
2022-11-07T04:43:01.884Z,10.5
2022-11-07T04:44:01.477Z,10.6
2022-11-07T04:45:02.048Z,10.7
2022-11-07T04:46:01.628Z,10.7
2022-11-07T04:47:01.236Z,10.7
2022-11-07T04:48:01.822Z,10.7
2022-11-07T04:49:01.417Z,10.6
2022-11-07T04:50:01.975Z,10.6
2022-11-07T04:51:01.581Z,10.6
2022-11-07T04:52:01.157Z,10.6
2022-11-07T04:53:01.759Z,10.6
2022-11-07T04:54:01.350Z,10.6
2022-11-07T04:55:01.907Z,10.6
2022-11-07T04:56:01.508Z,10.5
2022-11-07T04:57:02.069Z,10.5
2022-11-07T04:58:01.673Z,10.5
2022-11-07T04:59:01.248Z,10.5
2022-11-07T05:00:01.826Z,10.4
2022-11-07T05:01:01.403Z,10.4
2022-11-07T05:02:02.141Z,10.4
2022-11-07T05:03:01.714Z,10.5
2022-11-07T05:04:01.233Z,10.4
2022-11-07T05:05:01.800Z,10.5
2022-11-07T05:06:01.380Z,10.5
2022-11-07T05:07:01.949Z,10.5
2022-11-07T05:08:01.546Z,10.5
2022-11-07T05:09:02.110Z,10.4
2022-11-07T05:10:01.690Z,10.4
2022-11-07T05:11:01.271Z,10.3
2022-11-07T05:12:01.971Z,10.3
2022-11-07T05:13:01.524Z,10.3
2022-11-07T05:14:02.095Z,10.4
2022-11-07T05:15:01.671Z,10.4
2022-11-07T05:16:01.296Z,10.4
2022-11-07T05:17:01.832Z,10.4
2022-11-07T05:18:01.411Z,10.5
2022-11-07T05:19:02.250Z,10.5
2022-11-07T05:20:01.648Z,10.5
2022-11-07T05:21:01.213Z,10.6
2022-11-07T05:22:01.786Z,10.5
2022-11-07T05:23:01.363Z,10.6
2022-11-07T05:24:01.940Z,10.5
2022-11-07T05:25:01.536Z,10.5
2022-11-07T05:26:02.092Z,10.5
2022-11-07T05:27:01.669Z,10.6
2022-11-07T05:28:01.275Z,10.6
2022-11-07T05:29:01.833Z,10.6
2022-11-07T05:30:01.429Z,10.6
2022-11-07T05:31:01.993Z,10.6
2022-11-07T05:32:01.572Z,10.6
2022-11-07T05:33:01.149Z,10.7
2022-11-07T05:34:01.725Z,10.6
2022-11-07T05:35:01.320Z,10.6
2022-11-07T05:36:01.886Z,10.6
2022-11-07T05:37:01.478Z,10.6
2022-11-07T05:38:02.036Z,10.6
2022-11-07T05:39:01.611Z,10.5
2022-11-07T05:40:01.181Z,10.7
2022-11-07T05:41:01.776Z,10.7
2022-11-07T05:42:01.421Z,10.7
2022-11-07T05:43:02.016Z,10.7
2022-11-07T05:44:01.615Z,10.7
2022-11-07T05:45:01.168Z,10.7
2022-11-07T05:46:01.744Z,10.6
2022-11-07T05:47:01.318Z,10.5
2022-11-07T05:48:01.911Z,10.5
2022-11-07T05:49:01.518Z,10.5
2022-11-07T05:50:02.072Z,10.6
2022-11-07T05:51:01.649Z,10.7
2022-11-07T05:52:01.262Z,10.7
2022-11-07T05:53:01.874Z,10.7
2022-11-07T05:54:01.476Z,10.7
2022-11-07T05:55:02.046Z,10.6
2022-11-07T05:56:01.624Z,10.7
2022-11-07T05:57:01.221Z,10.7
2022-11-07T05:58:06.744Z,10.7
2022-11-07T05:59:01.324Z,10.7
2022-11-07T06:00:01.946Z,10.8
2022-11-07T06:01:01.524Z,10.8
2022-11-07T06:02:02.226Z,10.7
2022-11-07T06:03:01.955Z,10.8
2022-11-07T06:04:01.329Z,10.8
2022-11-07T06:05:01.905Z,10.8
2022-11-07T06:06:01.482Z,10.8
2022-11-07T06:07:02.074Z,10.8
2022-11-07T06:08:01.653Z,10.8
2022-11-07T06:09:01.247Z,10.8
2022-11-07T06:10:01.819Z,10.9
2022-11-07T06:11:01.397Z,10.8
2022-11-07T06:12:01.987Z,10.8
2022-11-07T06:13:01.580Z,10.8
2022-11-07T06:14:01.149Z,10.8
2022-11-07T06:15:01.721Z,10.8
2022-11-07T06:16:01.326Z,10.7
2022-11-07T06:17:01.935Z,10.8
2022-11-07T06:18:01.513Z,10.8
2022-11-07T06:19:02.082Z,10.8
2022-11-07T06:20:01.657Z,10.8
2022-11-07T06:21:01.257Z,10.8
2022-11-07T06:22:01.820Z,11
2022-11-07T06:23:01.396Z,11
2022-11-07T06:24:01.971Z,11
2022-11-07T06:25:01.548Z,11
2022-11-07T06:26:02.138Z,11
2022-11-07T06:27:01.720Z,10.9
2022-11-07T06:28:01.296Z,11
2022-11-07T06:29:01.874Z,11
2022-11-07T06:30:01.447Z,11
2022-11-07T06:31:02.038Z,11
2022-11-07T06:32:01.650Z,11.1
2022-11-07T06:33:01.217Z,11.1
2022-11-07T06:34:01.784Z,11
2022-11-07T06:35:01.362Z,11.1
2022-11-07T06:36:01.969Z,11.1
2022-11-07T06:37:03.287Z,11.1
2022-11-07T06:38:02.080Z,11.1
2022-11-07T06:39:01.656Z,11.1
2022-11-07T06:40:01.233Z,11.2
2022-11-07T06:41:01.834Z,11.2
2022-11-07T06:42:01.416Z,11.3
2022-11-07T06:43:01.996Z,11.3
2022-11-07T06:44:01.572Z,11.3
2022-11-07T06:45:01.145Z,11.3
2022-11-07T06:46:01.740Z,11.4
2022-11-07T06:47:01.315Z,11.5
2022-11-07T06:48:01.920Z,11.5
2022-11-07T06:49:01.499Z,11.6
2022-11-07T06:50:02.077Z,11.6
2022-11-07T06:51:01.673Z,11.6
2022-11-07T06:52:01.286Z,11.6
2022-11-07T06:53:01.837Z,11.6
2022-11-07T06:54:01.413Z,11.6
2022-11-07T06:55:01.987Z,11.6
2022-11-07T06:56:01.581Z,11.6
2022-11-07T06:57:01.175Z,11.7
2022-11-07T06:58:01.737Z,11.8
2022-11-07T06:59:01.314Z,11.8
2022-11-07T07:00:01.895Z,11.8
2022-11-07T07:01:01.562Z,11.8
2022-11-07T07:02:02.125Z,11.8
2022-11-07T07:03:01.795Z,11.9
2022-11-07T07:04:01.320Z,11.9
2022-11-07T07:05:01.886Z,11.8
2022-11-07T07:06:01.469Z,11.9
2022-11-07T07:07:02.061Z,11.9
2022-11-07T07:08:01.653Z,11.9
2022-11-07T07:09:01.232Z,12
2022-11-07T07:10:01.811Z,12
2022-11-07T07:11:01.388Z,12.1
2022-11-07T07:12:01.964Z,12.1
2022-11-07T07:13:01.564Z,12.2
2022-11-07T07:14:02.439Z,12.2
2022-11-07T07:15:01.264Z,12.2
2022-11-07T07:16:01.839Z,12.2
2022-11-07T07:17:01.535Z,12.1
2022-11-07T07:18:02.138Z,12.2
2022-11-07T07:19:01.713Z,12.2
2022-11-07T07:20:01.405Z,12.3
2022-11-07T07:21:01.529Z,12.4
2022-11-07T07:22:02.105Z,12.4
2022-11-07T07:23:05.650Z,12.4
2022-11-07T07:24:01.231Z,12.4
2022-11-07T07:25:01.824Z,12.4
2022-11-07T07:26:01.396Z,12.4
2022-11-07T07:27:01.969Z,12.4
2022-11-07T07:28:01.570Z,12.5
2022-11-07T07:29:02.120Z,12.5
2022-11-07T07:30:01.710Z,12.5
2022-11-07T07:31:01.281Z,12.5
2022-11-07T07:32:01.857Z,12.5
2022-11-07T07:33:01.433Z,12.6
2022-11-07T07:34:02.007Z,12.6
2022-11-07T07:35:01.604Z,12.6
2022-11-07T07:36:01.407Z,12.7
2022-11-07T07:37:01.764Z,12.6
2022-11-07T07:38:01.335Z,12.7
2022-11-07T07:39:01.910Z,12.7
2022-11-07T07:40:01.521Z,12.7
2022-11-07T07:41:02.064Z,12.7
2022-11-07T07:42:01.636Z,12.8
2022-11-07T07:43:01.210Z,12.9
2022-11-07T07:44:01.785Z,12.8
2022-11-07T07:45:01.374Z,12.8
2022-11-07T07:46:01.940Z,12.8
2022-11-07T07:47:01.515Z,12.8
2022-11-07T07:48:02.094Z,12.8
2022-11-07T07:49:01.668Z,12.8
2022-11-07T07:50:01.264Z,12.8
2022-11-07T07:51:01.833Z,12.9
2022-11-07T07:52:01.528Z,12.8
2022-11-07T07:53:06.295Z,12.8
2022-11-07T07:54:01.533Z,12.8
2022-11-07T07:55:02.129Z,12.9
2022-11-07T07:56:01.710Z,12.8
2022-11-07T07:57:01.308Z,12.8
2022-11-07T07:58:01.871Z,12.8
2022-11-07T07:59:01.450Z,12.9
2022-11-07T08:00:02.046Z,13
2022-11-07T08:01:01.761Z,13
2022-11-07T08:02:01.347Z,12.9
2022-11-07T08:03:01.787Z,13
2022-11-07T08:04:02.683Z,13
2022-11-07T08:05:01.462Z,13
2022-11-07T08:06:02.042Z,13.1
2022-11-07T08:07:01.193Z,13.1
2022-11-07T08:08:01.897Z,13.1
2022-11-07T08:09:01.415Z,13.1
2022-11-07T08:10:20.515Z,13.2
2022-11-07T08:11:01.542Z,13.2
2022-11-07T08:12:02.135Z,13.3
2022-11-07T08:13:01.711Z,13.3
2022-11-07T08:14:01.923Z,13.3
2022-11-07T08:15:01.559Z,13.3
2022-11-07T08:16:01.137Z,13.3
2022-11-07T08:17:01.728Z,13.3
2022-11-07T08:18:01.348Z,13.2
2022-11-07T08:19:01.886Z,13.3
2022-11-07T08:20:01.466Z,13.3
2022-11-07T08:21:02.042Z,13.3
2022-11-07T08:22:01.637Z,13.3
2022-11-07T08:23:01.206Z,13.3
2022-11-07T08:24:01.934Z,13.3
2022-11-07T08:25:01.436Z,13.3
2022-11-07T08:26:02.011Z,13.3
2022-11-07T08:27:01.606Z,13.3
2022-11-07T08:28:01.171Z,13.3
2022-11-07T08:29:01.765Z,13.2
2022-11-07T08:30:01.344Z,13.3
2022-11-07T08:31:01.918Z,13.3
2022-11-07T08:32:01.494Z,13.2
2022-11-07T08:33:02.065Z,13.3
2022-11-07T08:34:01.704Z,13.4
2022-11-07T08:35:01.299Z,13.3
2022-11-07T08:36:01.877Z,13.3
2022-11-07T08:37:01.450Z,13.4
2022-11-07T08:38:02.023Z,13.4
2022-11-07T08:39:01.617Z,13.4
2022-11-07T08:40:01.197Z,13.3
2022-11-07T08:41:01.750Z,13.3
2022-11-07T08:42:01.324Z,13.3
2022-11-07T08:43:01.899Z,13.3
2022-11-07T08:44:01.491Z,13.3
2022-11-07T08:45:02.060Z,13.2
2022-11-07T08:46:01.637Z,13.2
2022-11-07T08:47:04.460Z,13.2
2022-11-07T08:48:01.754Z,13.3
2022-11-07T08:49:01.346Z,13.3
2022-11-07T08:50:01.910Z,13.4
2022-11-07T08:51:01.484Z,13.4
2022-11-07T08:52:02.057Z,13.4
2022-11-07T08:53:03.159Z,13.4
2022-11-07T08:54:01.918Z,13.4
2022-11-07T08:55:01.510Z,13.4
2022-11-07T08:56:02.138Z,13.4
2022-11-07T08:57:01.714Z,13.4
2022-11-07T08:58:01.289Z,13.4
2022-11-07T08:59:01.882Z,13.4
2022-11-07T09:00:01.457Z,13.4
2022-11-07T09:01:02.132Z,13.4
2022-11-07T09:02:39.304Z,13.4
2022-11-07T09:04:01.967Z,13.5
2022-11-07T09:05:01.519Z,13.5
2022-11-07T09:06:02.089Z,13.5
2022-11-07T09:07:01.664Z,13.5
2022-11-07T09:08:01.243Z,13.4
2022-11-07T09:09:01.842Z,13.3
2022-11-07T09:10:01.418Z,13.3
2022-11-07T09:11:01.993Z,13.3
2022-11-07T09:12:01.604Z,13.3
2022-11-07T09:13:01.158Z,13.3
2022-11-07T09:14:01.747Z,13.3
2022-11-07T09:15:01.324Z,13.3
2022-11-07T09:16:01.911Z,13.3
2022-11-07T09:17:01.487Z,13.3
2022-11-07T09:18:02.059Z,13.3
2022-11-07T09:19:01.686Z,13.4
2022-11-07T09:20:01.276Z,13.3
2022-11-07T09:21:01.850Z,13.3
2022-11-07T09:22:01.425Z,13.3
2022-11-07T09:23:01.997Z,13.3
2022-11-07T09:24:01.584Z,13.3
2022-11-07T09:25:01.151Z,13.3
2022-11-07T09:26:01.726Z,13.3
2022-11-07T09:27:01.311Z,13.3
2022-11-07T09:28:01.931Z,13.3
2022-11-07T09:29:01.625Z,13.3
2022-11-07T09:30:02.091Z,13.4
2022-11-07T09:31:01.664Z,13.4
2022-11-07T09:32:12.085Z,13.4
2022-11-07T09:33:01.783Z,13.5
2022-11-07T09:34:01.380Z,13.6
2022-11-07T09:35:04.624Z,13.6
2022-11-07T09:36:01.483Z,13.6
2022-11-07T09:37:02.059Z,13.6
2022-11-07T09:38:01.632Z,13.7
2022-11-07T09:39:01.218Z,13.6
2022-11-07T09:40:01.793Z,13.6
2022-11-07T09:41:01.366Z,13.7
2022-11-07T09:42:01.955Z,13.7
2022-11-07T09:43:01.532Z,13.8
2022-11-07T09:44:04.575Z,13.8
2022-11-07T09:45:01.675Z,13.9
2022-11-07T09:46:01.259Z,13.9
2022-11-07T09:47:01.851Z,14
2022-11-07T09:48:01.432Z,14.1
2022-11-07T09:49:02.048Z,14
2022-11-07T09:50:01.647Z,13.9
2022-11-07T09:51:01.207Z,13.9
2022-11-07T09:52:01.783Z,14.1
2022-11-07T09:53:01.357Z,14.1
2022-11-07T09:54:01.930Z,14.1
2022-11-07T09:55:01.519Z,14.1
2022-11-07T09:56:02.076Z,14
2022-11-07T09:57:01.651Z,14.1
2022-11-07T09:58:01.225Z,14
2022-11-07T09:59:01.799Z,14
2022-11-07T10:00:01.417Z,14.2
2022-11-07T10:01:01.975Z,14.3
2022-11-07T10:02:01.656Z,14.1
2022-11-07T10:03:01.179Z,14
2022-11-07T10:04:23.936Z,14.1
2022-11-07T10:05:01.308Z,14.1
2022-11-07T10:06:01.895Z,14
2022-11-07T10:07:01.484Z,14.1
2022-11-07T10:08:02.053Z,14.1
2022-11-07T10:09:01.633Z,14
2022-11-07T10:10:01.231Z,14
2022-11-07T10:11:01.793Z,14
2022-11-07T10:12:01.369Z,14
2022-11-07T10:13:01.943Z,14
2022-11-07T10:14:01.516Z,13.9
2022-11-07T10:15:02.104Z,13.9
2022-11-07T10:16:01.702Z,13.9
2022-11-07T10:17:01.280Z,13.9
2022-11-07T10:18:01.854Z,13.9
2022-11-07T10:19:01.486Z,13.8
2022-11-07T10:20:02.030Z,13.8
2022-11-07T10:21:30.866Z,13.8
2022-11-07T10:22:01.156Z,13.9
2022-11-07T10:23:01.733Z,13.9
2022-11-07T10:24:01.311Z,13.8
2022-11-07T10:25:01.885Z,13.8
2022-11-07T10:26:01.480Z,13.8
2022-11-07T10:27:02.047Z,13.8
2022-11-07T10:28:01.620Z,13.6
2022-11-07T10:29:01.196Z,13.6
2022-11-07T10:30:01.798Z,13.4
2022-11-07T10:31:01.392Z,13.3
2022-11-07T10:32:02.106Z,13
2022-11-07T10:33:01.617Z,12.8
2022-11-07T10:34:01.190Z,12.7
2022-11-07T10:35:01.765Z,12.7
2022-11-07T10:36:01.354Z,12.7
2022-11-07T10:37:01.921Z,12.6
2022-11-07T10:38:01.495Z,12.5
2022-11-07T10:39:02.070Z,12.5
2022-11-07T10:40:01.649Z,12.5
2022-11-07T10:41:01.241Z,12.5
2022-11-07T10:42:01.817Z,12.5
2022-11-07T10:43:01.394Z,12.5
2022-11-07T10:44:01.964Z,12.4
2022-11-07T10:45:01.539Z,12.5
2022-11-07T10:46:02.126Z,12.5
2022-11-07T10:47:01.714Z,12.4
2022-11-07T10:48:01.313Z,12.4
2022-11-07T10:49:01.876Z,12.4
2022-11-07T10:50:01.449Z,12.4
2022-11-07T10:51:02.053Z,12.4
2022-11-07T10:52:01.705Z,12.4
2022-11-07T10:53:01.262Z,12.4
2022-11-07T10:54:01.840Z,12.4
2022-11-07T10:55:01.416Z,12.5
2022-11-07T10:56:01.991Z,12.5
2022-11-07T10:57:01.581Z,12.6
2022-11-07T10:58:01.146Z,12.6
2022-11-07T10:59:01.724Z,12.7
2022-11-07T11:00:01.299Z,12.7
2022-11-07T11:01:01.909Z,12.7
2022-11-07T11:02:01.582Z,12.5
2022-11-07T11:03:02.113Z,12.5
2022-11-07T11:04:01.768Z,12.5
2022-11-07T11:05:01.339Z,12.6
2022-11-07T11:06:01.913Z,12.6
2022-11-07T11:07:01.491Z,12.7
2022-11-07T11:08:02.088Z,12.7
2022-11-07T11:09:01.670Z,12.7
2022-11-07T11:10:01.243Z,12.7
2022-11-07T11:11:01.818Z,12.7
2022-11-07T11:12:01.396Z,12.8
2022-11-07T11:13:01.980Z,12.9
2022-11-07T11:14:01.573Z,12.9
2022-11-07T11:15:01.143Z,12.9
2022-11-07T11:16:05.648Z,13
2022-11-07T11:17:01.319Z,13
2022-11-07T11:18:01.924Z,12.9
2022-11-07T11:19:01.512Z,13
2022-11-07T11:20:01.640Z,13
2022-11-07T11:21:01.219Z,13.1
2022-11-07T11:22:01.645Z,13
2022-11-07T11:23:01.345Z,13.1
2022-11-07T11:24:01.483Z,13.1
2022-11-07T11:25:01.059Z,13.1
2022-11-07T11:26:00.636Z,13.2
2022-11-07T11:27:01.221Z,13.2
2022-11-07T11:28:00.795Z,13.2
2022-11-07T11:29:01.367Z,13.2
2022-11-07T11:30:00.942Z,13.2
2022-11-07T11:31:01.515Z,13.2
2022-11-07T11:32:01.193Z,13.1
2022-11-07T11:33:00.751Z,13.2
2022-11-07T11:34:01.324Z,13.3
2022-11-07T11:35:00.912Z,13.3
2022-11-07T11:36:01.506Z,13.3
2022-11-07T11:37:01.083Z,13.3
2022-11-07T11:38:00.674Z,13.4
2022-11-07T11:39:01.245Z,13.5
2022-11-07T11:40:00.824Z,13.4
2022-11-07T11:41:06.205Z,13.5
2022-11-07T11:42:00.932Z,13.5
2022-11-07T11:43:01.517Z,13.6
2022-11-07T11:44:01.095Z,13.5
2022-11-07T11:45:00.671Z,13.5
2022-11-07T11:46:01.259Z,13.5
2022-11-07T11:47:00.845Z,13.5
2022-11-07T11:48:01.421Z,13.4
2022-11-07T11:49:01.014Z,13.4
2022-11-07T11:50:01.574Z,13.4
2022-11-07T11:51:01.166Z,13.4
2022-11-07T11:52:00.786Z,13.3
2022-11-07T11:53:01.345Z,13.4
2022-11-07T11:54:00.920Z,13.4
2022-11-07T11:55:01.499Z,13.5
2022-11-07T11:56:01.074Z,13.5
2022-11-07T11:57:00.649Z,13.5
2022-11-07T11:58:01.239Z,13.7
2022-11-07T11:59:00.819Z,13.7
2022-11-07T12:00:01.395Z,13.7
2022-11-07T12:01:00.975Z,13.7
2022-11-07T12:02:01.623Z,13.7
2022-11-07T12:03:01.239Z,13.7
2022-11-07T12:04:02.475Z,13.7
2022-11-07T12:05:01.343Z,13.7
2022-11-07T12:06:00.918Z,13.8
2022-11-07T12:07:01.499Z,13.9
2022-11-07T12:08:01.116Z,14
2022-11-07T12:09:00.665Z,14
2022-11-07T12:10:01.260Z,14
2022-11-07T12:11:00.834Z,14.1
2022-11-07T12:12:01.409Z,14.1
2022-11-07T12:13:00.990Z,14.2
2022-11-07T12:14:01.574Z,14.2
2022-11-07T12:15:01.169Z,14.1
2022-11-07T12:16:00.745Z,14
2022-11-07T12:17:01.321Z,14.2
2022-11-07T12:18:00.911Z,14.3
2022-11-07T12:19:01.482Z,14.4
2022-11-07T12:20:01.077Z,14.4
2022-11-07T12:21:00.764Z,14.5
2022-11-07T12:22:01.219Z,14.3
2022-11-07T12:23:00.795Z,14.3
2022-11-07T12:24:01.401Z,14.3
2022-11-07T12:25:00.991Z,14.3
2022-11-07T12:26:01.557Z,14.3
2022-11-07T12:27:01.155Z,14.3
2022-11-07T12:28:00.730Z,14.3
2022-11-07T12:29:01.305Z,14.3
2022-11-07T12:30:00.882Z,14.3
2022-11-07T12:31:01.458Z,14.3
2022-11-07T12:32:01.054Z,14.3
2022-11-07T12:33:00.634Z,14.3
2022-11-07T12:34:01.204Z,14.3
2022-11-07T12:35:00.783Z,14.5
2022-11-07T12:36:01.358Z,14.5
2022-11-07T12:37:00.940Z,14.4
2022-11-07T12:38:01.534Z,14.5
2022-11-07T12:39:01.113Z,14.6
2022-11-07T12:40:00.715Z,14.7
2022-11-07T12:41:01.272Z,14.8
2022-11-07T12:42:00.848Z,14.8
2022-11-07T12:43:01.437Z,14.7
2022-11-07T12:44:01.029Z,14.8
2022-11-07T12:45:01.621Z,14.8
2022-11-07T12:46:01.202Z,14.9
2022-11-07T12:47:00.783Z,14.9
2022-11-07T12:48:01.373Z,14.8
2022-11-07T12:49:00.964Z,15
2022-11-07T12:50:01.539Z,15
2022-11-07T12:51:01.122Z,15
2022-11-07T12:52:00.706Z,14.9
2022-11-07T12:53:01.284Z,14.9
2022-11-07T12:54:00.876Z,15
2022-11-07T12:55:01.463Z,14.8
2022-11-07T12:56:01.064Z,14.7
2022-11-07T12:57:00.625Z,14.7
2022-11-07T12:58:01.200Z,14.8
2022-11-07T12:59:00.796Z,15
2022-11-07T13:00:01.363Z,14.9
2022-11-07T13:01:01.025Z,14.8
2022-11-07T13:02:01.588Z,14.7
2022-11-07T13:03:01.190Z,14.8
2022-11-07T13:04:00.781Z,14.7
2022-11-07T13:05:01.343Z,14.6
2022-11-07T13:06:00.925Z,14.7
2022-11-07T13:07:01.501Z,14.7
2022-11-07T13:08:01.081Z,14.7
2022-11-07T13:09:00.675Z,14.6
2022-11-07T13:10:01.250Z,14.7
2022-11-07T13:11:00.842Z,14.6
2022-11-07T13:12:01.438Z,14.6
2022-11-07T13:13:01.036Z,14.6
2022-11-07T13:14:01.603Z,14.5
2022-11-07T13:15:01.181Z,14.5
2022-11-07T13:16:14.912Z,14.6
2022-11-07T13:17:01.311Z,14.6
2022-11-07T13:18:00.887Z,14.6
2022-11-07T13:19:01.473Z,14.5
2022-11-07T13:20:01.057Z,14.5
2022-11-07T13:21:00.694Z,14.4
2022-11-07T13:22:01.237Z,14.4
2022-11-07T13:23:00.815Z,14.4
2022-11-07T13:24:01.391Z,14.3